Hunter, ND (58048)

7:53 AM CST on February 10, 2016 (GMT -0600)
PFS Hunter | | Change Station
CLOSE
Current Station
Personal Weather Station
Location: Hunter, ND
Elevation: 974 ft
Nearby Weather Stations

Elev 974 ft 47.15 °N, 97.21 °W | Updated 8 seconds ago

Snow
Snow
3.7 °F
Feels Like -10 °F
N
8.5
Wind Variable Wind from ESE
Gusts 9.0 mph

Today
High -- | Low -- °F
--% Chance of Precip.
Yesterday
High -- | Low -- °F
Precip. -- in
Pressure 30.10 in
Visibility 2.0 miles
Clouds Overcast 2400 ft
Windchill -10 °F
Dew Point 1 °F
Humidity 87%
Rainfall 0.00 in
Snow Depth Not available.
7:42 AM 5:44 PM
Waxing Crescent, 5% visible
SPECI KFAR 101339Z AUTO 11005KT 2SM -SN OVC024 M14/M17 A3010 RMK AO2 P0001 T11391167 TSNO
Pressure 30.10 in
Visibility 2.0 miles
Clouds Overcast 2400 ft
Windchill -10 °F
Dew Point 1 °F
Humidity 87%
Rainfall 0.00 in
Snow Depth Not available.
7:42 AM 5:44 PM
Waxing Crescent, 5% visible
SPECI KFAR 101339Z AUTO 11005KT 2SM -SN OVC024 M14/M17 A3010 RMK AO2 P0001 T11391167 TSNO

10-Day Weather Forecast

Almanac

Astronomy

Feb. 10, 2016 Rise Set
Actual Time
Civil Twilight
Nautical Twilight
Astronomical Twilight
Moon
Length of Visible Light
Length of Day
Tomorrow will be .
, % of the Moon is Illuminated

Today's Extremes

State Highs State Lows

Community

WunderPhotos

Upload Photos

1,891,845 photos uploaded!

WunderBlog® & News

Nearby

Air Quality

  Air Quality AQ Index Pollutant
Not available.

Snow Depth

Station Depth Elevation

Earthquake Activity

City Distance Mag. Time & Date
Minimum magnitude displayed is 2.5.

Coastal Water Temperatures

Place Temperature

Stations

Nearby Weather Stations

Station Location Temp. Windchill Dew Point Humidity Wind Precip. Elev Updated Type
                   

Watches & Warnings

There are currently no watches in effect.